Time;durP1;ratioP1;P1;durP2;ratioP2;P2;SDS_P1;SDS_P2;PMS_P1;PMS_P2;Temp;Humidity;BMP_temperature;BMP_pressure;BME280_temperature;BME280_humidity;BME280_pressure;Samples;Min_cycle;Max_cycle;Signal;HPM_P1;HPM_P2
2022/10/18 00:00:51;;;;;;;42.78;19.27;;;;;;;14.93;100.00;102498.13;5073177;28;20519;-68
2022/10/18 00:03:16;;;;;;;44.42;18.88;;;;;;;14.94;100.00;102496.38;5073032;28;20024;-69
2022/10/18 00:05:42;;;;;;;41.03;19.38;;;;;;;14.95;100.00;102498.19;5072942;28;20035;-69
2022/10/18 00:08:07;;;;;;;38.58;17.80;;;;;;;14.94;100.00;102489.41;5070457;28;20028;-69
2022/10/18 00:10:32;;;;;;;38.75;19.40;;;;;;;14.95;100.00;102482.44;5071055;28;20036;-68
2022/10/18 00:12:58;;;;;;;45.58;21.15;;;;;;;14.93;100.00;102487.63;5063894;28;20052;-69
2022/10/18 00:15:23;;;;;;;40.53;18.73;;;;;;;14.95;100.00;102487.69;5072766;28;20025;-69
2022/10/18 00:17:48;;;;;;;40.47;18.90;;;;;;;14.94;100.00;102485.88;5072895;28;20051;-69
2022/10/18 00:20:14;;;;;;;45.15;19.33;;;;;;;14.96;100.00;102486.81;5072946;28;20412;-68
2022/10/18 00:22:40;;;;;;;39.97;19.63;;;;;;;14.97;100.00;102488.59;5072667;28;20047;-68
2022/10/18 00:25:07;;;;;;;44.70;19.48;;;;;;;14.97;100.00;102491.22;5072544;28;20052;-68
2022/10/18 00:27:33;;;;;;;40.75;18.45;;;;;;;14.97;100.00;102485.97;5072455;28;20032;-68
2022/10/18 00:29:58;;;;;;;36.88;18.30;;;;;;;14.94;100.00;102491.13;5072549;28;20059;-68
2022/10/18 00:32:24;;;;;;;43.65;19.33;;;;;;;14.94;100.00;102485.88;5072564;28;20419;-68
2022/10/18 00:34:49;;;;;;;39.17;19.75;;;;;;;14.93;100.00;102476.22;5082542;28;20028;-69
2022/10/18 00:37:15;;;;;;;39.38;18.55;;;;;;;14.94;100.00;102485.88;5074793;28;20056;-68
2022/10/18 00:39:40;;;;;;;46.80;19.50;;;;;;;14.93;100.00;102479.75;5072509;28;20574;-69
2022/10/18 00:42:06;;;;;;;36.58;19.38;;;;;;;14.94;100.00;102485.88;5072017;28;20016;-69
2022/10/18 00:44:31;;;;;;;39.47;19.23;;;;;;;14.95;100.00;102479.81;5071270;28;20538;-68
2022/10/18 00:47:09;;;;;;;39.80;18.77;;;;;;;14.94;100.00;102485.88;5072236;28;20035;-68
2022/10/18 00:49:45;;;;;;;37.05;18.33;;;;;;;14.93;100.00;102484.09;5072349;28;20397;-68
2022/10/18 00:52:21;;;;;;;35.63;17.83;;;;;;;14.95;100.00;102490.31;5070709;28;20036;-68
2022/10/18 00:54:48;;;;;;;37.75;18.05;;;;;;;14.94;100.00;102488.50;5072168;28;20028;-69
2022/10/18 00:57:14;;;;;;;44.30;20.17;;;;;;;14.94;100.00;102492.03;5072176;28;20025;-70
2022/10/18 00:59:41;;;;;;;39.70;17.90;;;;;;;14.92;100.00;102488.47;5072465;28;20024;-71
2022/10/18 01:02:07;;;;;;;39.50;17.77;;;;;;;14.92;100.00;102495.47;5071737;28;20110;-71
2022/10/18 01:04:33;;;;;;;41.55;18.42;;;;;;;14.91;100.00;102502.44;5072040;28;20024;-70
2022/10/18 01:07:02;;;;;;;40.95;19.45;;;;;;;14.90;100.00;102511.16;5071248;28;20024;-70
2022/10/18 01:09:44;;;;;;;34.45;18.25;;;;;;;14.89;100.00;102508.50;5072333;28;20033;-71
2022/10/18 01:12:28;;;;;;;39.60;18.02;;;;;;;14.87;100.00;102500.53;5057754;28;20017;-70
2022/10/18 01:15:20;;;;;;;36.38;17.17;;;;;;;14.88;100.00;102509.31;5069827;28;20043;-70
2022/10/18 01:18:03;;;;;;;36.85;18.40;;;;;;;14.89;100.00;102506.75;5066630;28;20501;-70
2022/10/18 01:21:11;;;;;;;37.33;18.95;;;;;;;14.89;100.00;102503.25;5070870;28;20040;-70
2022/10/18 01:24:06;;;;;;;40.45;19.38;;;;;;;14.90;100.00;102499.75;5071546;28;20020;-70
2022/10/18 01:26:59;;;;;;;39.55;19.15;;;;;;;14.89;100.00;102503.25;5071307;28;20027;-71
2022/10/18 01:30:03;;;;;;;38.38;18.30;;;;;;;14.90;100.00;102505.00;5071282;28;20059;-71
2022/10/18 01:32:36;;;;;;;34.67;17.42;;;;;;;14.88;100.00;102501.44;5062862;28;20036;-70
2022/10/18 01:35:07;;;;;;;38.88;19.15;;;;;;;14.85;100.00;102503.97;5071411;28;20020;-70
2022/10/18 01:37:34;;;;;;;40.50;18.92;;;;;;;14.84;100.00;102504.81;5070896;28;20078;-70
2022/10/18 01:40:05;;;;;;;35.78;17.73;;;;;;;14.86;100.00;102521.47;5071213;28;20027;-70
2022/10/18 01:42:31;;;;;;;39.92;19.23;;;;;;;14.85;100.00;102511.84;5071068;28;20382;-70
2022/10/18 01:44:58;;;;;;;38.58;18.25;;;;;;;14.86;100.00;102517.16;5070389;28;20075;-71
2022/10/18 01:47:24;;;;;;;35.88;18.42;;;;;;;14.86;100.00;102513.63;5070899;28;20047;-70
2022/10/18 01:49:57;;;;;;;37.10;18.45;;;;;;;14.85;100.00;102506.59;5070904;28;20025;-70
2022/10/18 01:52:22;;;;;;;38.20;18.48;;;;;;;14.84;100.00;102500.44;5070773;28;20020;-70
2022/10/18 01:54:48;;;;;;;38.88;18.20;;;;;;;14.81;100.00;102508.22;5086351;28;20028;-70
2022/10/18 01:57:33;;;;;;;34.05;17.23;;;;;;;14.81;100.00;102502.09;5070848;28;20032;-70
2022/10/18 02:00:06;;;;;;;35.15;18.40;;;;;;;14.78;100.00;102506.38;5057829;28;20043;-70
2022/10/18 02:02:48;;;;;;;38.83;19.10;;;;;;;14.77;100.00;102507.25;5070696;28;20028;-70
2022/10/18 02:05:37;;;;;;;35.75;18.50;;;;;;;14.79;100.00;102512.53;5070830;28;20033;-70
2022/10/18 02:08:13;;;;;;;41.47;19.05;;;;;;;14.77;100.00;102514.19;5070894;28;20021;-70
2022/10/18 02:10:48;;;;;;;38.55;17.60;;;;;;;14.76;100.00;102501.94;5070564;28;20447;-70
2022/10/18 02:13:18;;;;;;;36.38;19.00;;;;;;;14.74;100.00;102507.16;5070607;28;20024;-71
2022/10/18 02:15:46;;;;;;;38.58;19.50;;;;;;;14.74;100.00;102508.84;5070365;28;20051;-70
2022/10/18 02:18:19;;;;;;;39.47;18.30;;;;;;;14.72;100.00;102506.19;5069942;28;20032;-71
2022/10/18 02:20:47;;;;;;;36.70;18.05;;;;;;;14.71;100.00;102501.75;5070151;28;20273;-70
2022/10/18 02:23:14;;;;;;;42.58;19.95;;;;;;;14.70;100.00;102500.00;5068547;28;20031;-71
2022/10/18 02:25:39;;;;;;;39.75;17.67;;;;;;;14.67;100.00;102499.91;5060878;28;20033;-70
2022/10/18 02:28:05;;;;;;;35.47;18.17;;;;;;;14.66;100.00;102510.34;5062993;28;20529;-69
2022/10/18 02:30:50;;;;;;;41.42;18.23;;;;;;;14.65;100.00;102508.56;5054333;28;20524;-69
2022/10/18 02:33:42;;;;;;;41.30;18.25;;;;;;;14.62;100.00;102511.97;5068810;28;20020;-68
2022/10/18 02:36:17;;;;;;;33.92;17.92;;;;;;;14.61;100.00;102507.50;5066556;28;20111;-68
2022/10/18 02:38:44;;;;;;;37.92;18.40;;;;;;;14.55;100.00;102508.19;5070112;28;20021;-69
2022/10/18 02:41:10;;;;;;;35.42;17.83;;;;;;;14.52;100.00;102504.59;5056466;28;20052;-68
2022/10/18 02:43:35;;;;;;;37.83;18.30;;;;;;;14.52;100.00;102513.34;5069232;28;20067;-68
2022/10/18 02:46:01;;;;;;;44.35;20.00;;;;;;;14.51;100.00;102518.53;5070132;28;20048;-68
2022/10/18 02:48:26;;;;;;;40.25;19.92;;;;;;;14.52;100.00;102509.84;5070140;28;20530;-68
2022/10/18 02:50:51;;;;;;;35.78;18.95;;;;;;;14.52;100.00;102518.59;5069930;28;20028;-68
2022/10/18 02:53:17;;;;;;;43.50;18.52;;;;;;;14.50;100.00;102522.03;5070006;28;20477;-68
2022/10/18 02:55:42;;;;;;;38.85;18.58;;;;;;;14.50;100.00;102516.78;5069933;28;20024;-68
2022/10/18 02:58:07;;;;;;;37.22;19.00;;;;;;;14.50;100.00;102514.16;5070285;28;20066;-68
2022/10/18 03:00:32;;;;;;;39.08;18.70;;;;;;;14.49;100.00;102502.75;5069840;28;20486;-68
2022/10/18 03:02:58;;;;;;;38.85;18.88;;;;;;;14.49;100.00;102517.59;5070094;28;20024;-68
2022/10/18 03:05:23;;;;;;;41.97;19.73;;;;;;;14.49;100.00;102518.50;5069827;28;20043;-68
2022/10/18 03:07:48;;;;;;;40.90;19.08;;;;;;;14.50;100.00;102514.16;5069909;28;20028;-68
2022/10/18 03:10:13;;;;;;;41.88;20.13;;;;;;;14.49;100.00;102512.38;5069748;28;20174;-69
2022/10/18 03:12:39;;;;;;;34.97;18.05;;;;;;;14.48;100.00;102515.81;5068607;28;20065;-68
2022/10/18 03:15:04;;;;;;;37.55;18.40;;;;;;;14.48;100.00;102521.06;5069752;28;20029;-68
2022/10/18 03:17:30;;;;;;;36.17;17.25;;;;;;;14.45;100.00;102516.59;5069766;28;20407;-68
2022/10/18 03:19:55;;;;;;;35.30;17.42;;;;;;;14.44;100.00;102509.59;5069826;28;20377;-69
2022/10/18 03:22:20;;;;;;;30.80;16.30;;;;;;;14.43;100.00;102502.56;5069610;28;20081;-68
2022/10/18 03:24:45;;;;;;;32.75;17.08;;;;;;;14.42;100.00;102519.13;5069821;28;20446;-68
2022/10/18 03:27:11;;;;;;;33.15;16.77;;;;;;;14.41;100.00;102520.84;5069482;28;20032;-68
2022/10/18 03:29:36;;;;;;;38.47;18.42;;;;;;;14.40;100.00;102521.69;5069485;28;20123;-68
2022/10/18 03:32:01;;;;;;;38.10;19.85;;;;;;;14.40;100.00;102524.31;5072887;28;20396;-68
2022/10/18 03:34:26;;;;;;;41.85;19.48;;;;;;;14.38;100.00;102525.09;5072315;28;20034;-69
2022/10/18 03:36:53;;;;;;;37.40;18.58;;;;;;;14.37;100.00;102520.72;5069833;28;20047;-68
2022/10/18 03:39:19;;;;;;;37.50;18.35;;;;;;;14.35;100.00;102532.84;5063631;28;20033;-68
2022/10/18 03:41:44;;;;;;;36.17;19.25;;;;;;;14.35;100.00;102533.75;5070790;28;20445;-68
2022/10/18 03:44:09;;;;;;;42.05;21.30;;;;;;;14.34;100.00;102529.34;5071252;28;20035;-68
2022/10/18 03:46:34;;;;;;;46.90;21.00;;;;;;;14.35;100.00;102530.22;5073445;28;20274;-68
2022/10/18 03:49:00;;;;;;;48.55;22.73;;;;;;;14.36;100.00;102521.53;5073413;28;20496;-68
2022/10/18 03:51:25;;;;;;;44.58;21.38;;;;;;;14.37;100.00;102518.09;5073043;28;20043;-68
2022/10/18 03:53:50;;;;;;;48.13;21.55;;;;;;;14.37;100.00;102508.47;5074359;28;20028;-68
2022/10/18 03:56:15;;;;;;;50.50;22.50;;;;;;;14.38;100.00;102512.88;5073296;28;20027;-69
2022/10/18 03:58:41;;;;;;;46.85;21.70;;;;;;;14.37;100.00;102511.09;5070017;28;20441;-68
2022/10/18 04:01:06;;;;;;;49.03;23.38;;;;;;;14.36;100.00;102506.69;5066115;28;20039;-69
2022/10/18 04:03:31;;;;;;;50.85;24.77;;;;;;;14.35;100.00;102499.69;5072776;28;20077;-69
2022/10/18 04:05:59;;;;;;;52.72;24.55;;;;;;;14.35;100.00;102504.00;5073037;28;20483;-69
2022/10/18 04:08:25;;;;;;;48.78;24.77;;;;;;;14.33;100.00;102506.56;5072620;28;20025;-68
2022/10/18 04:10:51;;;;;;;48.47;23.10;;;;;;;14.34;100.00;102508.38;5073169;28;20119;-68
2022/10/18 04:13:16;;;;;;;49.88;24.30;;;;;;;14.33;100.00;102501.34;5072734;28;20085;-68
2022/10/18 04:15:42;;;;;;;52.90;25.42;;;;;;;14.33;100.00;102506.56;5073005;28;20059;-68
2022/10/18 04:18:07;;;;;;;53.67;24.73;;;;;;;14.31;100.00;102504.72;5072761;28;20077;-68
2022/10/18 04:20:32;;;;;;;51.28;25.17;;;;;;;14.29;100.00;102502.06;5072823;28;20460;-68
2022/10/18 04:22:58;;;;;;;52.47;25.30;;;;;;;14.25;100.00;102506.31;5072676;28;20021;-68
2022/10/18 04:25:24;;;;;;;52.38;24.63;;;;;;;14.25;100.00;102515.91;5072639;28;20020;-68
2022/10/18 04:27:49;;;;;;;48.47;23.90;;;;;;;14.22;100.00;102521.03;5072621;28;20021;-68
2022/10/18 04:30:15;;;;;;;49.80;24.38;;;;;;;14.21;100.00;102525.41;5072575;28;20403;-68
2022/10/18 04:32:40;;;;;;;49.85;24.23;;;;;;;14.21;100.00;102529.75;5072483;28;20112;-69
2022/10/18 04:35:06;;;;;;;47.58;23.52;;;;;;;14.22;100.00;102528.91;5072401;28;20025;-68
2022/10/18 04:37:32;;;;;;;44.88;23.17;;;;;;;14.21;100.00;102524.50;5071558;28;20488;-70
2022/10/18 04:39:57;;;;;;;46.67;22.38;;;;;;;14.20;100.00;102525.34;5072233;28;20063;-71
2022/10/18 04:42:23;;;;;;;44.97;22.42;;;;;;;14.19;100.00;102521.84;5068835;28;20086;-71
2022/10/18 04:44:49;;;;;;;45.13;22.92;;;;;;;14.20;100.00;102525.34;5068126;28;20429;-71
2022/10/18 04:47:14;;;;;;;44.25;22.48;;;;;;;14.20;100.00;102522.72;5070731;28;20103;-71
2022/10/18 04:49:40;;;;;;;41.05;21.02;;;;;;;14.19;100.00;102526.16;5070676;28;20040;-71
2022/10/18 04:52:05;;;;;;;42.53;21.65;;;;;;;14.17;100.00;102527.88;5070118;28;20154;-71
2022/10/18 04:54:30;;;;;;;43.95;22.63;;;;;;;14.15;100.00;102524.28;5071932;28;20107;-71
2022/10/18 04:56:56;;;;;;;45.28;21.98;;;;;;;14.14;100.00;102525.13;5072269;28;20025;-71
2022/10/18 04:59:21;;;;;;;42.55;21.10;;;;;;;14.12;100.00;102529.41;5071780;28;20036;-70
2022/10/18 05:01:46;;;;;;;40.78;21.13;;;;;;;14.09;100.00;102533.72;5072016;28;20020;-70
2022/10/18 05:04:11;;;;;;;42.97;20.77;;;;;;;14.08;100.00;102525.81;5071843;28;20021;-71
2022/10/18 05:06:37;;;;;;;53.40;25.08;;;;;;;14.06;100.00;102530.06;5071857;28;20038;-68
2022/10/18 05:09:02;;;;;;;55.10;25.42;;;;;;;14.04;100.00;102524.78;5071777;28;20032;-68
2022/10/18 05:11:27;;;;;;;45.50;24.05;;;;;;;14.02;100.00;102529.09;5071872;28;20280;-68
2022/10/18 05:13:53;;;;;;;52.45;25.85;;;;;;;14.02;100.00;102528.19;5071824;28;20115;-68
2022/10/18 05:16:18;;;;;;;53.70;24.50;;;;;;;14.03;100.00;102533.50;5071908;28;20020;-68
2022/10/18 05:18:43;;;;;;;52.45;26.00;;;;;;;14.01;100.00;102535.16;5071651;28;20093;-68
2022/10/18 05:21:09;;;;;;;52.90;25.67;;;;;;;14.01;100.00;102536.91;5071600;28;20025;-68
2022/10/18 05:23:34;;;;;;;50.17;24.17;;;;;;;13.99;100.00;102546.41;5071463;28;20025;-68
2022/10/18 05:26:02;;;;;;;45.78;23.15;;;;;;;13.95;100.00;102545.44;5071594;28;20382;-68
2022/10/18 05:28:27;;;;;;;39.85;21.75;;;;;;;13.91;100.00;102546.13;5071476;28;20044;-68
2022/10/18 05:30:53;;;;;;;42.83;22.48;;;;;;;13.88;100.00;102553.91;5071610;28;20107;-68
2022/10/18 05:33:18;;;;;;;44.90;21.90;;;;;;;13.86;100.00;102550.31;5071117;28;20024;-68
2022/10/18 05:35:43;;;;;;;40.47;20.55;;;;;;;13.86;100.00;102555.53;5071286;28;20028;-68
2022/10/18 05:38:08;;;;;;;42.35;21.88;;;;;;;13.85;100.00;102551.16;5071222;28;20024;-68
2022/10/18 05:40:37;;;;;;;50.33;23.50;;;;;;;13.83;100.00;102556.34;5071283;28;20032;-68
2022/10/18 05:43:02;;;;;;;55.03;26.17;;;;;;;13.82;100.00;102553.66;5070408;28;20031;-68
2022/10/18 05:45:28;;;;;;;42.85;21.15;;;;;;;13.78;100.00;102552.66;5070745;28;20462;-69
2022/10/18 05:47:53;;;;;;;43.83;20.55;;;;;;;13.75;100.00;102549.91;5071080;28;20060;-68
2022/10/18 05:50:18;;;;;;;48.33;19.67;;;;;;;13.70;100.00;102554.97;5070682;28;20498;-68
2022/10/18 05:52:44;;;;;;;39.78;19.35;;;;;;;13.69;100.00;102557.53;5070047;28;20029;-68
2022/10/18 05:55:09;;;;;;;34.58;18.25;;;;;;;13.66;100.00;102553.06;5069263;28;20135;-68
2022/10/18 05:57:34;;;;;;;27.17;16.90;;;;;;;13.63;100.00;102547.72;5070959;28;20028;-68
2022/10/18 05:59:59;;;;;;;29.80;17.95;;;;;;;13.62;100.00;102559.03;5071022;28;20681;-68
2022/10/18 06:02:25;;;;;;;30.42;17.40;;;;;;;13.60;100.00;102559.78;5070616;28;20098;-68
2022/10/18 06:04:50;;;;;;;33.28;17.70;;;;;;;13.58;100.00;102559.72;5070639;28;20468;-68
2022/10/18 06:07:15;;;;;;;32.03;18.48;;;;;;;13.56;100.00;102569.28;5070565;28;20035;-68
2022/10/18 06:09:41;;;;;;;33.92;19.75;;;;;;;13.55;100.00;102567.47;5070640;28;20024;-68
2022/10/18 06:12:07;;;;;;;44.40;23.10;;;;;;;13.54;100.00;102565.69;5070617;28;20029;-68
2022/10/18 06:14:33;;;;;;;37.20;20.63;;;;;;;13.49;100.00;102569.88;5070617;28;20082;-68
2022/10/18 06:16:58;;;;;;;42.90;21.38;;;;;;;13.45;100.00;102566.22;5070887;28;20020;-68
2022/10/18 06:19:24;;;;;;;37.80;20.27;;;;;;;13.46;100.00;102577.59;5070437;28;20089;-68
2022/10/18 06:21:49;;;;;;;43.17;23.33;;;;;;;13.44;100.00;102571.41;5070399;28;20032;-68
2022/10/18 06:24:14;;;;;;;54.72;25.88;;;;;;;13.45;100.00;102575.81;5070472;28;20027;-68
2022/10/18 06:26:40;;;;;;;54.63;26.27;;;;;;;13.47;100.00;102576.75;5070187;28;20102;-68
2022/10/18 06:29:05;;;;;;;62.60;24.75;;;;;;;13.49;100.00;102583.84;5070360;28;20049;-68
2022/10/18 06:31:30;;;;;;;59.80;24.05;;;;;;;13.49;100.00;102588.19;5070232;28;20028;-68
2022/10/18 06:33:59;;;;;;;53.53;24.90;;;;;;;13.50;100.00;102600.47;5070368;28;20025;-68
2022/10/18 06:36:25;;;;;;;56.25;26.27;;;;;;;13.52;100.00;102604.03;5070254;28;20036;-68
2022/10/18 06:38:51;;;;;;;58.58;24.98;;;;;;;13.53;100.00;102598.84;5070344;28;20020;-68
2022/10/18 06:41:18;;;;;;;51.88;25.13;;;;;;;13.55;100.00;102596.28;5070109;28;20033;-68
2022/10/18 06:43:49;;;;;;;54.70;24.73;;;;;;;13.56;100.00;102598.09;5069432;28;20021;-68
2022/10/18 06:46:15;;;;;;;54.70;25.25;;;;;;;13.55;100.00;102594.53;5070210;28;20144;-68
2022/10/18 06:48:40;;;;;;;50.00;23.38;;;;;;;13.55;100.00;102594.53;5069418;28;20539;-68
2022/10/18 06:51:07;;;;;;;54.30;24.05;;;;;;;13.56;100.00;102601.59;5081804;28;20177;-68
2022/10/18 06:53:35;;;;;;;55.88;22.75;;;;;;;13.56;100.00;102608.56;5061528;28;20440;-68
2022/10/18 06:56:06;;;;;;;56.25;24.33;;;;;;;13.57;100.00;102615.59;5065670;28;20036;-68
2022/10/18 06:58:32;;;;;;;56.88;24.13;;;;;;;13.56;100.00;102625.16;5079512;28;20462;-68
2022/10/18 07:00:58;;;;;;;54.67;24.35;;;;;;;13.56;100.00;102630.38;5066705;28;20028;-68
2022/10/18 07:03:25;;;;;;;63.67;25.98;;;;;;;13.54;100.00;102624.22;5066805;28;20031;-68
2022/10/18 07:05:50;;;;;;;58.00;25.90;;;;;;;13.55;100.00;102623.34;5083139;28;20025;-68
2022/10/18 07:08:17;;;;;;;52.47;25.67;;;;;;;13.56;100.00;102634.75;5068315;28;20037;-68
2022/10/18 07:10:48;;;;;;;56.45;24.67;;;;;;;13.57;100.00;102639.16;5070127;28;20029;-68
2022/10/18 07:13:14;;;;;;;57.22;24.92;;;;;;;13.57;100.00;102642.66;5067604;28;20036;-68
2022/10/18 07:15:39;;;;;;;51.50;25.30;;;;;;;13.60;100.00;102652.38;5069331;28;20498;-68
2022/10/18 07:18:04;;;;;;;48.78;24.92;;;;;;;13.61;100.00;102643.66;5066639;28;20054;-68
2022/10/18 07:20:30;;;;;;;54.70;26.40;;;;;;;13.63;100.00;102647.25;5068447;28;20031;-68
2022/10/18 07:22:55;;;;;;;52.28;24.98;;;;;;;13.63;100.00;102647.25;5069630;28;20016;-68
2022/10/18 07:25:21;;;;;;;60.60;27.60;;;;;;;13.66;100.00;102657.84;5068847;28;20016;-68
2022/10/18 07:27:46;;;;;;;59.50;27.88;;;;;;;13.68;100.00;102660.53;5082642;28;20020;-68
2022/10/18 07:30:11;;;;;;;53.88;27.35;;;;;;;13.69;100.00;102662.34;5067139;28;20040;-68
2022/10/18 07:32:37;;;;;;;58.50;27.52;;;;;;;13.69;100.00;102657.97;5067827;28;20028;-68
2022/10/18 07:35:02;;;;;;;71.93;28.10;;;;;;;13.71;100.00;102656.28;5083229;28;20768;-68
2022/10/18 07:37:28;;;;;;;62.80;27.83;;;;;;;13.73;100.00;102675.59;5068492;28;20025;-70
2022/10/18 07:39:53;;;;;;;65.47;26.92;;;;;;;13.73;100.00;102673.00;5069779;28;20392;-70
2022/10/18 07:42:19;;;;;;;62.03;26.88;;;;;;;13.75;100.00;102678.28;5068184;28;20068;-70
2022/10/18 07:44:44;;;;;;;65.22;27.60;;;;;;;13.77;100.00;102687.09;5068647;28;20035;-70
2022/10/18 07:47:09;;;;;;;59.45;27.08;;;;;;;13.77;100.00;102687.09;5068438;28;20028;-70
2022/10/18 07:49:35;;;;;;;67.80;27.15;;;;;;;13.81;100.00;102691.63;5068835;28;20109;-70
2022/10/18 07:52:00;;;;;;;77.30;26.90;;;;;;;13.84;100.00;102698.72;5069307;28;20029;-70
2022/10/18 07:54:25;;;;;;;76.22;28.08;;;;;;;13.84;100.00;102707.47;5067345;28;20040;-70
2022/10/18 07:56:50;;;;;;;66.55;27.02;;;;;;;13.86;100.00;102705.81;5068776;28;20017;-71
2022/10/18 07:59:16;;;;;;;67.55;26.58;;;;;;;13.89;100.00;102707.69;5066864;28;20496;-70
2022/10/18 08:01:41;;;;;;;70.45;27.67;;;;;;;13.90;100.00;102714.69;5069102;28;20035;-70
2022/10/18 08:04:06;;;;;;;72.40;27.90;;;;;;;13.90;100.00;102720.84;5067793;28;20125;-70
2022/10/18 08:06:32;;;;;;;71.05;26.85;;;;;;;13.91;100.00;102725.22;5063424;28;20029;-70
2022/10/18 08:08:57;;;;;;;65.57;26.30;;;;;;;13.95;100.00;102727.97;5065065;28;20137;-70
2022/10/18 08:11:23;;;;;;;72.38;27.80;;;;;;;13.96;100.00;102728.06;5067397;28;20039;-71
2022/10/18 08:13:49;;;;;;;66.55;27.45;;;;;;;13.97;100.00;102732.44;5067852;28;20028;-70
2022/10/18 08:16:18;;;;;;;71.88;27.42;;;;;;;13.99;100.00;102733.41;5063907;28;20027;-71
2022/10/18 08:18:44;;;;;;;64.47;25.77;;;;;;;13.96;100.00;102738.53;5066224;28;20034;-70
2022/10/18 08:21:11;;;;;;;70.03;27.00;;;;;;;13.95;100.00;102741.06;5067584;28;20032;-71
2022/10/18 08:23:37;;;;;;;70.57;27.23;;;;;;;13.94;100.00;102744.53;5067457;28;20112;-70
2022/10/18 08:26:05;;;;;;;68.65;26.52;;;;;;;13.94;100.00;102747.16;5068984;28;20654;-70
2022/10/18 08:28:30;;;;;;;71.57;27.05;;;;;;;13.94;100.00;102742.81;5071057;28;20290;-70
2022/10/18 08:30:55;;;;;;;69.38;27.25;;;;;;;13.95;100.00;102747.22;5072696;28;20259;-70
2022/10/18 08:33:21;;;;;;;67.60;27.67;;;;;;;13.98;100.00;102749.97;5068995;28;20013;-70
2022/10/18 08:36:00;;;;;;;69.18;27.25;;;;;;;14.02;100.00;102751.88;5068358;28;20368;-70
2022/10/18 08:38:30;;;;;;;80.75;28.63;;;;;;;14.06;100.00;102753.78;5069177;28;20539;-68
2022/10/18 08:40:55;;;;;;;70.93;28.25;;;;;;;14.12;100.00;102754.84;5068353;28;20513;-68
2022/10/18 08:43:40;;;;;;;75.28;28.05;;;;;;;14.15;100.00;102754.97;5071100;28;20020;-68
2022/10/18 08:46:14;;;;;;;76.75;28.00;;;;;;;14.20;100.00;102756.06;5067556;28;20036;-68
2022/10/18 08:48:42;;;;;;;81.38;29.92;;;;;;;14.24;100.00;102763.22;5067370;28;20052;-68
2022/10/18 08:51:45;;;;;;;79.00;28.65;;;;;;;14.31;100.00;102766.97;5066574;28;20399;-68
2022/10/18 08:54:13;;;;;;;86.35;30.38;;;;;;;14.36;100.00;102760.19;5069378;28;20500;-68
2022/10/18 08:56:44;;;;;;;83.20;31.20;;;;;;;14.35;100.00;102761.00;5070307;28;20025;-68
2022/10/18 08:59:11;;;;;;;91.10;32.17;;;;;;;14.34;100.00;102764.44;5069310;28;20074;-68
2022/10/18 09:01:58;;;;;;;80.05;30.83;;;;;;;14.37;100.00;102772.47;5068788;28;20046;-68
2022/10/18 09:05:01;;;;;;;78.90;30.98;;;;;;;14.35;100.00;102759.28;5068431;28;20107;-68
2022/10/18 09:07:37;;;;;;;84.03;31.13;;;;;;;14.31;100.00;102759.09;5055978;28;20044;-70
2022/10/18 09:10:23;;;;;;;77.13;28.70;;;;;;;14.27;100.00;102768.59;5068283;28;20029;-70
2022/10/18 09:13:14;;;;;;;78.68;29.98;;;;;;;14.26;100.00;102772.03;5066123;28;20032;-70
2022/10/18 09:15:55;;;;;;;79.95;30.42;;;;;;;14.29;100.00;102773.88;5069102;28;20036;-70
2022/10/18 09:18:37;;;;;;;79.90;30.05;;;;;;;14.31;100.00;102765.25;5069951;28;20031;-70
2022/10/18 09:21:19;;;;;;;81.93;29.85;;;;;;;14.34;100.00;102770.59;5070263;28;20032;-70
2022/10/18 09:23:57;;;;;;;80.95;31.02;;;;;;;14.35;100.00;102771.50;5068180;28;20115;-70
2022/10/18 09:26:23;;;;;;;80.75;31.17;;;;;;;14.36;100.00;102768.94;5068282;28;20603;-70
2022/10/18 09:29:13;;;;;;;81.35;29.70;;;;;;;14.38;100.00;102769.91;5067476;28;20051;-71
2022/10/18 09:31:51;;;;;;;83.22;29.42;;;;;;;14.41;100.00;102756.91;5066628;28;20484;-71
2022/10/18 09:34:28;;;;;;;75.05;29.50;;;;;;;14.44;100.00;102759.63;5068722;28;20523;-70
2022/10/18 09:36:54;;;;;;;92.30;31.98;;;;;;;14.43;100.00;102763.09;5068087;28;20775;-70
2022/10/18 09:39:24;;;;;;;73.07;29.35;;;;;;;14.43;100.00;102763.09;5067202;28;20027;-71
2022/10/18 09:42:16;;;;;;;77.57;28.45;;;;;;;14.46;100.00;102758.81;5067322;28;20028;-71
2022/10/18 09:44:52;;;;;;;70.82;27.58;;;;;;;14.44;100.00;102761.38;5064741;28;20048;-70
2022/10/18 09:47:39;;;;;;;77.55;27.95;;;;;;;14.43;100.00;102778.81;5065622;28;20036;-69
2022/10/18 09:50:23;;;;;;;63.55;23.95;;;;;;;14.46;100.00;102779.78;5067815;28;20070;-68
2022/10/18 09:52:58;;;;;;;56.90;22.75;;;;;;;14.46;100.00;102777.16;5066686;28;20107;-69
2022/10/18 09:55:32;;;;;;;57.95;23.92;;;;;;;14.46;100.00;102779.78;5068085;28;20058;-69
2022/10/18 09:58:01;;;;;;;59.47;22.27;;;;;;;14.45;100.00;102773.63;5068445;28;20036;-69
2022/10/18 10:00:40;;;;;;;57.95;22.58;;;;;;;14.48;100.00;102771.13;5064325;28;20040;-69
2022/10/18 10:03:11;;;;;;;68.07;22.48;;;;;;;14.50;100.00;102771.22;5066523;28;20028;-69
2022/10/18 10:05:37;;;;;;;54.22;22.33;;;;;;;14.51;100.00;102765.09;5066543;28;20032;-68
2022/10/18 10:08:03;;;;;;;62.67;23.80;;;;;;;14.54;100.00;102766.13;5067431;28;20031;-69
2022/10/18 10:10:30;;;;;;;53.35;21.92;;;;;;;14.56;99.55;102777.56;5066249;28;20051;-68
2022/10/18 10:13:04;;;;;;;56.70;22.00;;;;;;;14.60;99.76;102768.09;5069104;28;20052;-68
2022/10/18 10:15:29;;;;;;;62.35;21.77;;;;;;;14.67;99.47;102770.16;5069277;28;20037;-69
2022/10/18 10:18:00;;;;;;;59.92;24.42;;;;;;;14.77;99.43;102771.38;5067529;28;20107;-69
2022/10/18 10:20:43;;;;;;;66.30;25.80;;;;;;;14.91;100.00;102769.28;5068219;28;20038;-69
2022/10/18 10:23:20;;;;;;;70.65;26.90;;;;;;;15.07;99.79;102770.72;5068801;28;20021;-69
2022/10/18 10:25:54;;;;;;;69.10;25.38;;;;;;;15.22;98.40;102768.66;5070573;28;20114;-68
2022/10/18 10:28:23;;;;;;;62.50;25.88;;;;;;;15.39;98.17;102768.34;5069643;28;20181;-68
2022/10/18 10:30:49;;;;;;;66.20;25.77;;;;;;;15.52;96.91;102774.91;5069542;28;20104;-69
2022/10/18 10:33:32;;;;;;;62.63;24.85;;;;;;;15.69;96.97;102781.63;5068896;28;20157;-68
2022/10/18 10:35:59;;;;;;;69.30;25.50;;;;;;;15.80;96.46;102782.00;5069675;28;20039;-68
2022/10/18 10:38:27;;;;;;;62.03;26.00;;;;;;;15.92;94.57;102781.53;5066327;28;20021;-69
2022/10/18 10:40:52;;;;;;;66.88;25.33;;;;;;;16.09;96.17;102789.94;5067074;28;20029;-68
2022/10/18 10:43:30;;;;;;;70.28;24.23;;;;;;;16.25;94.77;102791.31;5066185;28;20032;-68
2022/10/18 10:46:05;;;;;;;57.08;21.35;;;;;;;16.36;93.72;102792.56;5068587;28;20068;-68
2022/10/18 10:48:38;;;;;;;44.40;16.90;;;;;;;16.51;93.65;102806.19;5068359;28;20031;-69
2022/10/18 10:51:06;;;;;;;46.63;18.58;;;;;;;16.62;92.37;102803.88;5067260;28;20044;-69
2022/10/18 10:53:37;;;;;;;41.20;16.70;;;;;;;16.67;87.68;102791.75;5068251;28;20028;-69
2022/10/18 10:56:05;;;;;;;45.10;15.52;;;;;;;16.81;90.70;102801.78;5065038;28;20031;-68
2022/10/18 10:58:38;;;;;;;48.65;14.93;;;;;;;16.92;89.33;102803.03;5066798;28;20069;-69
2022/10/18 11:01:26;;;;;;;39.55;14.68;;;;;;;17.03;90.16;102796.34;5066883;28;20466;-70
2022/10/18 11:03:54;;;;;;;35.92;11.40;;;;;;;17.13;85.42;102802.78;5083747;28;20120;-69
2022/10/18 11:06:45;;;;;;;37.03;11.23;;;;;;;17.19;89.78;102808.19;5065805;28;20107;-69
2022/10/18 11:09:23;;;;;;;27.48;10.48;;;;;;;17.28;87.11;102806.66;5068951;28;20075;-70
2022/10/18 11:12:00;;;;;;;34.40;9.90;;;;;;;17.40;84.42;102812.25;5068264;28;20025;-70